Home > Products > Valid Products > TAF

000
FTUS44 KAMA 310700 AAA
TAFAMA
TAF AMD
KAMA 310757Z 3108/0106 18016KT P6SM SCT120
     FM311400 22021G29KT P6SM SCT100=



000
FTUS44 KAMA 310500
TAFGUY
TAF
KGUY 310520Z 3106/0106 17018KT P6SM FEW100
     FM311400 21020G29KT P6SM SCT110=



000
FTUS44 KAMA 310500
TAFDHT
TAF
KDHT 310520Z 3106/0106 18015KT P6SM SCT100
     FM310900 20009KT P6SM SKC
     FM311400 22019G29KT P6SM FEW100=



000
FTUS44 KAMA 310500
TAFAMA
TAF
KAMA 310520Z 3106/0106 15016KT P6SM SCT120
     FM311400 22021G29KT P6SM SCT100=



000
FTUS44 KAMA 310400 AAA
TAFGUY
TAF AMD
KGUY 310403Z 3104/3124 17018KT P6SM FEW100
     FM311400 22020G29KT P6SM SCT110=



000
FTUS44 KAMA 302300
TAFAMA
TAF
KAMA 302330Z 3100/3124 16016KT P6SM SCT120
     FM311400 22021G29KT P6SM SCT100=



000
FTUS44 KAMA 302300
TAFDHT
TAF
KDHT 302330Z 3100/3124 17013KT P6SM SCT100
     FM310900 20009KT P6SM SKC
     FM311400 23019G29KT P6SM FEW100=



000
FTUS44 KAMA 302300
TAFGUY
TAF
KGUY 302330Z 3100/3124 18013KT P6SM FEW100
     FM311400 22020G29KT P6SM SCT110=



000
FTUS44 KAMA 302200 AAB
TAFDHT
TAF AMD
KDHT 302222Z 3022/3118 19012G18KT P6SM SCT100
     FM310100 18011KT P6SM SKC
     FM311400 20011G18KT P6SM SKC=



000
FTUS44 KAMA 302100 AAA
TAFDHT
TAF AMD
KDHT 302134Z 3022/3118 19012G18KT P6SM VCTS SCT100CB
     FM310100 18011KT P6SM SKC
     FM311400 20011G18KT P6SM SKC=



000
FTUS44 KAMA 301700
TAFDHT
TAF
KDHT 301720Z 3018/3118 19011G18KT P6SM FEW100
     FM310400 18011KT P6SM SKC
     FM311400 20011G18KT P6SM SKC=



000
FTUS44 KAMA 301700
TAFGUY
TAF
KGUY 301720Z 3018/3118 18011KT P6SM FEW100
     FM311400 16011G19KT P6SM SKC=



000
FTUS44 KAMA 301700
TAFAMA
TAF
KAMA 301720Z 3018/3118 21005KT P6SM SKC
     FM310100 18011KT P6SM SKC
     FM311400 22015G25KT P6SM SCT250=



000
FTUS44 KAMA 301100
TAFGUY
TAF
KGUY 301120Z 3012/3112 VRB03KT P6SM BKN120
     FM301800 18012G19KT P6SM SCT070
     FM310100 17011KT P6SM SCT250=



000
FTUS44 KAMA 301100
TAFAMA
TAF
KAMA 301120Z 3012/3112 VRB03KT P6SM SCT120
     FM302000 18012G19KT P6SM SCT070
     FM310100 17014KT P6SM SCT250=



000
FTUS44 KAMA 301100
TAFDHT
TAF
KDHT 301120Z 3012/3112 VRB03KT P6SM BKN120
     FM301800 19012G19KT P6SM SCT070
     FM310100 18011KT P6SM SCT250=



000
FTUS44 KAMA 300500
TAFGUY
TAF
KGUY 300520Z 3006/3106 13006KT P6SM SCT150
     FM300800 20008KT P6SM OVC120
     FM302000 20015KT P6SM SCT080=



000
FTUS44 KAMA 300500
TAFAMA
TAF
KAMA 300520Z 3006/3106 16008KT P6SM SCT150
     FM300900 22008KT P6SM OVC150
     FM302000 18011G18KT P6SM SCT080=



000
FTUS44 KAMA 300500
TAFDHT
TAF
KDHT 300520Z 3006/3106 13006KT P6SM BKN150
     FM301000 24008KT P6SM OVC120
     FM302000 20015KT P6SM SCT080=



000
FTUS44 KAMA 292300
TAFGUY
TAF
KGUY 292323Z 3000/3024 02008KT P6SM SKC
     FM300800 20008KT P6SM OVC120
     FM302000 20015KT P6SM SCT080=



000
FTUS44 KAMA 292300
TAFDHT
TAF
KDHT 292323Z 3000/3024 VRB06KT P6SM SKC
     FM301000 24008KT P6SM OVC120
     FM302000 20015KT P6SM SCT080=



000
FTUS44 KAMA 292300
TAFAMA
TAF
KAMA 292323Z 3000/3024 VRB06KT P6SM SKC
     FM300900 22008KT P6SM OVC150
     FM302000 18011G18KT P6SM SCT080=



000
FTUS44 KAMA 291700
TAFAMA
TAF
KAMA 291720Z 2918/3018 31007KT P6SM SKC
     FM300100 21005KT P6SM SKC=



000
FTUS44 KAMA 291700
TAFDHT
TAF
KDHT 291720Z 2918/3018 35008KT P6SM SKC
     FM300100 18008KT P6SM SKC=



000
FTUS44 KAMA 291700
TAFGUY
TAF
KGUY 291720Z 2918/3018 27011KT P6SM SKC
     FM300000 VRB04KT P6SM SKC=



000
FTUS44 KAMA 291200 AAA
TAFAMA
TAF AMD
KAMA 291209Z 2912/3012 25004KT P6SM FEW050
     FM291400 36007KT P6SM FEW080
     FM300100 18005KT P6SM FEW100=



000
FTUS44 KAMA 291100
TAFAMA
TAF
KAMA 291137Z 2912/3012 25004KT 6SM BR FEW001 SCT006
      TEMPO 2912/2914 3SM BR BKN006
     FM291400 36007KT P6SM FEW080
     FM300100 18005KT P6SM FEW100=



000
FTUS44 KAMA 291100
TAFGUY
TAF
KGUY 291137Z 2912/3012 27008KT P6SM SKC
     FM300100 VRB04KT P6SM FEW100=



000
FTUS44 KAMA 291100
TAFDHT
TAF
KDHT 291137Z 2912/3012 35008KT P6SM SKC
     FM300100 21008KT P6SM SCT100=



000
FTUS44 KAMA 291000 AAB
TAFAMA
TAF AMD
KAMA 291006Z 2910/3006 VRB05KT 1/4SM FG VV001
     FM291400 36008KT P6SM SCT060 SCT250
     FM300100 13008KT P6SM FEW250=



000
FTUS44 KAMA 290600 AAA
TAFAMA
TAF AMD
KAMA 290656Z 2907/3006 VRB06KT P6SM BKN003
     FM291400 36008KT P6SM SCT060 SCT250
     FM300100 13008KT P6SM FEW250=



000
FTUS44 KAMA 290500
TAFGUY
TAF
KGUY 290520Z 2906/3006 33008KT P6SM SCT120
     FM292000 28008KT P6SM SCT060 SCT250
     FM300100 08008KT P6SM FEW250=



000
FTUS44 KAMA 290500
TAFAMA
TAF
KAMA 290520Z 2906/3006 01008KT P6SM SCT120
     FM291400 36008KT P6SM SCT060 SCT250
     FM300100 13008KT P6SM FEW250=



000
FTUS44 KAMA 290500
TAFDHT
TAF
KDHT 290520Z 2906/3006 35008KT P6SM SCT120
     FM292000 24008KT P6SM SCT060 SCT250
     FM300100 12008KT P6SM FEW250=



000
FTUS44 KAMA 282300
TAFGUY
TAF
KGUY 282320Z 2900/2924 35008KT P6SM VCTS BKN070CB
      TEMPO 2900/2904 VRB25G35KT 5SM TSRA BKN060CB
     FM290600 35008KT P6SM BKN120
     FM291500 30008KT P6SM SCT250=



000
FTUS44 KAMA 282300
TAFAMA
TAF
KAMA 282320Z 2900/2924 10008KT P6SM VCTS BKN060CB
      TEMPO 2900/2904 VRB25G35KT P6SM -TSRA BKN050CB
     FM290600 05008KT P6SM BKN120
     FM291400 36008KT P6SM SCT250=



000
FTUS44 KAMA 282300
TAFDHT
TAF
KDHT 282320Z 2900/2924 01008KT P6SM VCTS BKN070CB
      TEMPO 2900/2904 VRB25G35KT 5SM TSRA BKN060CB
     FM290600 36008KT P6SM BKN120
     FM291500 35008KT P6SM SCT250=



000
FTUS44 KAMA 281700
TAFDHT
TAF
KDHT 281739Z 2818/2918 02008KT P6SM SCT080
     FM282100 02009KT P6SM VCTS BKN080CB
     FM290000 02009KT P6SM SCT100 BKN200
     FM291500 03008KT P6SM SKC=



000
FTUS44 KAMA 281700
TAFGUY
TAF
KGUY 281739Z 2818/2918 34010KT P6SM SCT070
     FM282100 35008KT P6SM VCTS BKN070CB
     FM290200 35008KT P6SM BKN120
     FM291500 34008KT P6SM SKC=



000
FTUS44 KAMA 281700
TAFAMA
TAF
KAMA 281739Z 2818/2918 25009KT P6SM SCT090
     FM290100 07009KT P6SM BKN120
     FM291400 02010KT P6SM SCT100=



000
FTUS44 KAMA 281100
TAFAMA
TAF
KAMA 281120Z 2812/2912 20010KT P6SM BKN200
     FM281400 25010KT P6SM SCT200
     FM282000 24010KT P6SM SCT070 BKN200
     FM290100 06008KT P6SM SCT100 BKN200
     FM290800 14008KT P6SM SCT200=



000
FTUS44 KAMA 281100
TAFGUY
TAF
KGUY 281120Z 2812/2912 22013KT P6SM SCT200
     FM281400 33010KT P6SM SCT080 BKN200
     FM290100 01007KT P6SM SCT200=



000
FTUS44 KAMA 281100
TAFDHT
TAF
KDHT 281120Z 2812/2912 25008KT P6SM SCT200
     FM281400 34010KT P6SM SCT200
     FM282200 03009KT P6SM SCT080 BKN200
     FM290800 36008KT P6SM SCT200=



    US Dept of Commerce
    National Oceanic and Atmospheric Administration
    National Weather Service
    1325 East West Highway
    Silver Spring, MD 20910
    Page Author: NWS Internet Services Team
Disclaimer
Information Quality
Credits
Glossary
Privacy Policy
Freedom of Information Act (FOIA)
About Us
Career Opportunities